Acadiana Regional Airport
KARA : rendu visible

Aérodrome :











RETROUVEZ-NOUS SUR...

 
LOGIN :

S'inscrire | Disclaimer

   EN    FR    IT 

 









Légende :    VFR   VFR Marginal   IFR   IFR Intensif   IFR Très Intensif
Visi : 
Plafond : 
>= 8 km
>= 3000ft
5 à 8 km
1000 à 3000 ft
1500m à 5 km
500 à 1000 ft
800 à 1500m
200 à 500 ft
< 800m
< 200 ft
Symboles :   Orages  Brouillard  Fortes neiges  Fortes précipitations  Vent > 20 kt






- Altitude de l'aérodrome : 24 ft


KARA - Acadiana Regional

DERNIER METAR :
  • 240453Z AUTO 14008KT 10SM OVC050 14/13 A3006 RMK AO2 SLP180 T01440128

METARs EXPIRÉS :
  • 240353Z AUTO 14009KT 10SM BKN050 14/13 A3006 RMK AO2 SLP179 T01440128
  • 240253Z AUTO 14010KT 10SM CLR 15/13 A3007 RMK AO2 SLP180 T01500128 58010

TAF KARA
Valide du 24 à 00h jusqu'au 25 à 00h UTC


232338Z 2400/2424 16010KT P6SM BKN050
FM241200 17007KT P6SM OVC035
FM241500 19017G25KT P6SM VCTS OVC015CB
TEMPO 2419/2423 4SM TSRA OVC007CB
FM242300 20015G22KT P6SM OVC015



MET'MAP, la Météo Aéronautique d'un coup d'oeil ! - Copyright ORBIFLY Décembre 2007 - Disclaimer

ORBIFLY MET'MAP TEAM :

Programmation & Développement : Alexandra Zaïnal
Sur une idée originale de : Baudouin d'Aumeries
Assistance à la programmation : Marc-Olivier Méhu
Soutien technique & logistique : Manuel Goepfert

Contact : metmap@orbifly.com




SOURCES & CREDITS :

   NOAA       Earth
Advisory